sensor_id;sensor_type;location;lat;lon;timestamp;P1;durP1;ratioP1;P2;durP2;ratioP2
41721;SDS011;27407;24.142;-110.310;2023-02-26T00:01:26;50.90;;;4.27;;
41721;SDS011;27407;24.142;-110.310;2023-02-26T00:03:55;70.10;;;5.37;;
41721;SDS011;27407;24.142;-110.310;2023-02-26T00:06:25;27.85;;;2.72;;
41721;SDS011;27407;24.142;-110.310;2023-02-26T00:08:53;21.13;;;2.80;;
41721;SDS011;27407;24.142;-110.310;2023-02-26T00:11:20;22.70;;;3.27;;
41721;SDS011;27407;24.142;-110.310;2023-02-26T00:13:47;19.23;;;2.63;;
41721;SDS011;27407;24.142;-110.310;2023-02-26T00:18:49;58.20;;;4.43;;
41721;SDS011;27407;24.142;-110.310;2023-02-26T00:21:17;32.50;;;3.22;;
41721;SDS011;27407;24.142;-110.310;2023-02-26T00:23:46;16.37;;;2.60;;
41721;SDS011;27407;24.142;-110.310;2023-02-26T00:26:13;31.30;;;2.57;;
41721;SDS011;27407;24.142;-110.310;2023-02-26T00:28:40;19.40;;;2.57;;
41721;SDS011;27407;24.142;-110.310;2023-02-26T00:31:07;12.97;;;2.10;;
41721;SDS011;27407;24.142;-110.310;2023-02-26T00:33:34;16.90;;;1.80;;
41721;SDS011;27407;24.142;-110.310;2023-02-26T00:41:46;16.80;;;2.33;;
41721;SDS011;27407;24.142;-110.310;2023-02-26T00:44:13;33.30;;;3.17;;
41721;SDS011;27407;24.142;-110.310;2023-02-26T00:46:44;34.40;;;3.40;;
41721;SDS011;27407;24.142;-110.310;2023-02-26T00:49:41;19.27;;;2.60;;
41721;SDS011;27407;24.142;-110.310;2023-02-26T00:52:38;13.60;;;2.20;;
41721;SDS011;27407;24.142;-110.310;2023-02-26T00:55:17;17.47;;;2.47;;
41721;SDS011;27407;24.142;-110.310;2023-02-26T00:57:44;27.97;;;2.50;;
41721;SDS011;27407;24.142;-110.310;2023-02-26T01:00:11;33.83;;;3.43;;
41721;SDS011;27407;24.142;-110.310;2023-02-26T01:02:39;38.40;;;2.97;;
41721;SDS011;27407;24.142;-110.310;2023-02-26T01:05:07;25.77;;;3.60;;
41721;SDS011;27407;24.142;-110.310;2023-02-26T01:10:59;31.20;;;3.90;;
41721;SDS011;27407;24.142;-110.310;2023-02-26T01:13:25;252.00;;;18.07;;
41721;SDS011;27407;24.142;-110.310;2023-02-26T01:15:56;161.50;;;15.23;;
41721;SDS011;27407;24.142;-110.310;2023-02-26T01:18:37;104.50;;;8.57;;
41721;SDS011;27407;24.142;-110.310;2023-02-26T01:21:09;143.60;;;10.20;;
41721;SDS011;27407;24.142;-110.310;2023-02-26T01:23:44;64.70;;;6.07;;
41721;SDS011;27407;24.142;-110.310;2023-02-26T01:26:18;71.40;;;5.97;;
41721;SDS011;27407;24.142;-110.310;2023-02-26T01:28:49;84.60;;;6.33;;
41721;SDS011;27407;24.142;-110.310;2023-02-26T01:37:13;40.87;;;4.13;;
41721;SDS011;27407;24.142;-110.310;2023-02-26T01:39:53;45.20;;;3.87;;
41721;SDS011;27407;24.142;-110.310;2023-02-26T01:42:43;31.27;;;3.60;;
41721;SDS011;27407;24.142;-110.310;2023-02-26T01:45:18;23.80;;;2.93;;
41721;SDS011;27407;24.142;-110.310;2023-02-26T01:48:02;42.80;;;4.17;;
41721;SDS011;27407;24.142;-110.310;2023-02-26T01:50:34;30.53;;;4.30;;
41721;SDS011;27407;24.142;-110.310;2023-02-26T01:53:21;82.03;;;7.47;;
41721;SDS011;27407;24.142;-110.310;2023-02-26T01:55:52;116.17;;;11.23;;
41721;SDS011;27407;24.142;-110.310;2023-02-26T01:58:32;456.53;;;32.17;;
41721;SDS011;27407;24.142;-110.310;2023-02-26T02:01:01;176.93;;;14.10;;
41721;SDS011;27407;24.142;-110.310;2023-02-26T02:03:29;204.00;;;16.93;;
41721;SDS011;27407;24.142;-110.310;2023-02-26T02:06:03;131.40;;;11.03;;
41721;SDS011;27407;24.142;-110.310;2023-02-26T02:08:33;192.33;;;13.63;;
41721;SDS011;27407;24.142;-110.310;2023-02-26T02:11:02;237.93;;;14.80;;
41721;SDS011;27407;24.142;-110.310;2023-02-26T02:21:49;186.37;;;14.80;;
41721;SDS011;27407;24.142;-110.310;2023-02-26T02:28:11;161.53;;;14.00;;
41721;SDS011;27407;24.142;-110.310;2023-02-26T02:32:54;70.70;;;8.67;;
41721;SDS011;27407;24.142;-110.310;2023-02-26T02:35:29;125.60;;;10.30;;
41721;SDS011;27407;24.142;-110.310;2023-02-26T02:41:18;64.13;;;7.53;;
41721;SDS011;27407;24.142;-110.310;2023-02-26T02:43:59;91.27;;;7.70;;
41721;SDS011;27407;24.142;-110.310;2023-02-26T02:46:30;81.10;;;8.67;;
41721;SDS011;27407;24.142;-110.310;2023-02-26T02:49:01;64.33;;;6.00;;
41721;SDS011;27407;24.142;-110.310;2023-02-26T02:51:32;52.20;;;5.40;;
41721;SDS011;27407;24.142;-110.310;2023-02-26T02:54:06;61.33;;;5.43;;
41721;SDS011;27407;24.142;-110.310;2023-02-26T02:56:48;38.80;;;4.30;;
41721;SDS011;27407;24.142;-110.310;2023-02-26T03:02:22;31.17;;;3.07;;
41721;SDS011;27407;24.142;-110.310;2023-02-26T03:04:53;21.80;;;3.10;;
41721;SDS011;27407;24.142;-110.310;2023-02-26T03:07:20;31.20;;;3.67;;
41721;SDS011;27407;24.142;-110.310;2023-02-26T03:09:46;42.50;;;4.07;;
41721;SDS011;27407;24.142;-110.310;2023-02-26T03:12:13;24.40;;;2.73;;
41721;SDS011;27407;24.142;-110.310;2023-02-26T03:14:40;19.17;;;3.70;;
41721;SDS011;27407;24.142;-110.310;2023-02-26T03:28:22;46.53;;;3.47;;
41721;SDS011;27407;24.142;-110.310;2023-02-26T03:31:07;34.33;;;3.27;;
41721;SDS011;27407;24.142;-110.310;2023-02-26T03:33:42;31.30;;;3.67;;
41721;SDS011;27407;24.142;-110.310;2023-02-26T03:36:53;22.03;;;2.80;;
41721;SDS011;27407;24.142;-110.310;2023-02-26T03:47:07;31.53;;;4.37;;
41721;SDS011;27407;24.142;-110.310;2023-02-26T03:49:45;11.73;;;3.17;;
41721;SDS011;27407;24.142;-110.310;2023-02-26T03:52:20;42.40;;;7.83;;
41721;SDS011;27407;24.142;-110.310;2023-02-26T03:54:52;47.10;;;8.37;;
41721;SDS011;27407;24.142;-110.310;2023-02-26T03:57:38;34.03;;;6.57;;
41721;SDS011;27407;24.142;-110.310;2023-02-26T04:00:06;33.33;;;6.53;;
41721;SDS011;27407;24.142;-110.310;2023-02-26T04:05:40;27.30;;;4.97;;
41721;SDS011;27407;24.142;-110.310;2023-02-26T04:08:12;26.40;;;4.50;;
41721;SDS011;27407;24.142;-110.310;2023-02-26T04:10:40;26.10;;;4.37;;
41721;SDS011;27407;24.142;-110.310;2023-02-26T04:13:16;20.90;;;4.20;;
41721;SDS011;27407;24.142;-110.310;2023-02-26T04:15:43;29.03;;;3.17;;
41721;SDS011;27407;24.142;-110.310;2023-02-26T04:18:10;18.97;;;3.13;;
41721;SDS011;27407;24.142;-110.310;2023-02-26T04:20:36;19.93;;;3.33;;
41721;SDS011;27407;24.142;-110.310;2023-02-26T04:23:03;28.97;;;3.53;;
41721;SDS011;27407;24.142;-110.310;2023-02-26T04:25:30;22.37;;;3.83;;
41721;SDS011;27407;24.142;-110.310;2023-02-26T04:27:56;21.53;;;2.43;;
41721;SDS011;27407;24.142;-110.310;2023-02-26T04:30:23;22.10;;;2.50;;
41721;SDS011;27407;24.142;-110.310;2023-02-26T04:32:50;18.97;;;1.60;;
41721;SDS011;27407;24.142;-110.310;2023-02-26T04:35:16;38.50;;;3.37;;
41721;SDS011;27407;24.142;-110.310;2023-02-26T04:37:43;32.30;;;3.00;;
41721;SDS011;27407;24.142;-110.310;2023-02-26T04:40:10;19.07;;;2.10;;
41721;SDS011;27407;24.142;-110.310;2023-02-26T04:42:37;15.37;;;2.53;;
41721;SDS011;27407;24.142;-110.310;2023-02-26T04:45:04;15.57;;;1.80;;
41721;SDS011;27407;24.142;-110.310;2023-02-26T04:47:31;9.07;;;1.70;;
41721;SDS011;27407;24.142;-110.310;2023-02-26T04:49:58;20.67;;;1.90;;
41721;SDS011;27407;24.142;-110.310;2023-02-26T04:52:24;18.87;;;3.17;;
41721;SDS011;27407;24.142;-110.310;2023-02-26T04:54:51;13.57;;;2.07;;
41721;SDS011;27407;24.142;-110.310;2023-02-26T04:57:18;58.07;;;3.97;;
41721;SDS011;27407;24.142;-110.310;2023-02-26T04:59:45;14.63;;;1.97;;
41721;SDS011;27407;24.142;-110.310;2023-02-26T05:02:11;13.43;;;1.53;;
41721;SDS011;27407;24.142;-110.310;2023-02-26T05:04:38;13.20;;;1.70;;
41721;SDS011;27407;24.142;-110.310;2023-02-26T05:07:05;11.60;;;1.50;;
41721;SDS011;27407;24.142;-110.310;2023-02-26T05:09:32;15.67;;;1.37;;
41721;SDS011;27407;24.142;-110.310;2023-02-26T05:12:16;17.93;;;2.10;;
41721;SDS011;27407;24.142;-110.310;2023-02-26T05:14:43;23.63;;;2.07;;
41721;SDS011;27407;24.142;-110.310;2023-02-26T05:17:09;36.73;;;2.63;;
41721;SDS011;27407;24.142;-110.310;2023-02-26T05:19:36;21.30;;;2.47;;
41721;SDS011;27407;24.142;-110.310;2023-02-26T05:22:03;38.57;;;2.20;;
41721;SDS011;27407;24.142;-110.310;2023-02-26T05:24:29;11.67;;;2.40;;
41721;SDS011;27407;24.142;-110.310;2023-02-26T05:26:56;20.93;;;2.30;;
41721;SDS011;27407;24.142;-110.310;2023-02-26T05:29:23;16.57;;;2.27;;
41721;SDS011;27407;24.142;-110.310;2023-02-26T05:31:50;13.17;;;2.27;;
41721;SDS011;27407;24.142;-110.310;2023-02-26T05:34:19;19.47;;;1.80;;
41721;SDS011;27407;24.142;-110.310;2023-02-26T05:36:46;10.83;;;1.80;;
41721;SDS011;27407;24.142;-110.310;2023-02-26T05:39:13;9.43;;;1.13;;
41721;SDS011;27407;24.142;-110.310;2023-02-26T05:41:40;10.40;;;1.70;;
41721;SDS011;27407;24.142;-110.310;2023-02-26T05:44:06;9.83;;;1.30;;
41721;SDS011;27407;24.142;-110.310;2023-02-26T05:46:33;25.10;;;2.37;;
41721;SDS011;27407;24.142;-110.310;2023-02-26T05:49:00;9.30;;;1.17;;
41721;SDS011;27407;24.142;-110.310;2023-02-26T05:51:26;13.33;;;1.70;;
41721;SDS011;27407;24.142;-110.310;2023-02-26T05:53:53;9.10;;;1.80;;
41721;SDS011;27407;24.142;-110.310;2023-02-26T05:56:20;13.93;;;2.03;;
41721;SDS011;27407;24.142;-110.310;2023-02-26T05:58:47;29.03;;;2.17;;
41721;SDS011;27407;24.142;-110.310;2023-02-26T06:01:14;12.00;;;1.40;;
41721;SDS011;27407;24.142;-110.310;2023-02-26T06:03:41;14.30;;;1.67;;
41721;SDS011;27407;24.142;-110.310;2023-02-26T06:06:09;24.50;;;2.53;;
41721;SDS011;27407;24.142;-110.310;2023-02-26T06:08:37;11.40;;;1.70;;
41721;SDS011;27407;24.142;-110.310;2023-02-26T06:11:03;21.13;;;2.17;;
41721;SDS011;27407;24.142;-110.310;2023-02-26T06:13:30;11.90;;;2.20;;
41721;SDS011;27407;24.142;-110.310;2023-02-26T06:15:57;10.17;;;1.50;;
41721;SDS011;27407;24.142;-110.310;2023-02-26T06:18:24;18.00;;;1.83;;
41721;SDS011;27407;24.142;-110.310;2023-02-26T06:20:51;16.43;;;1.77;;
41721;SDS011;27407;24.142;-110.310;2023-02-26T06:23:18;10.47;;;1.40;;
41721;SDS011;27407;24.142;-110.310;2023-02-26T06:25:44;6.23;;;1.73;;
41721;SDS011;27407;24.142;-110.310;2023-02-26T06:28:11;11.03;;;1.77;;
41721;SDS011;27407;24.142;-110.310;2023-02-26T06:30:38;11.40;;;1.87;;
41721;SDS011;27407;24.142;-110.310;2023-02-26T06:33:05;11.70;;;1.47;;
41721;SDS011;27407;24.142;-110.310;2023-02-26T06:35:32;5.93;;;1.50;;
41721;SDS011;27407;24.142;-110.310;2023-02-26T06:37:58;8.70;;;1.53;;
41721;SDS011;27407;24.142;-110.310;2023-02-26T06:40:25;5.43;;;1.53;;
41721;SDS011;27407;24.142;-110.310;2023-02-26T06:42:52;9.77;;;1.33;;
41721;SDS011;27407;24.142;-110.310;2023-02-26T06:45:18;13.83;;;1.23;;
41721;SDS011;27407;24.142;-110.310;2023-02-26T06:47:45;5.63;;;1.50;;
41721;SDS011;27407;24.142;-110.310;2023-02-26T06:50:12;12.00;;;1.47;;
41721;SDS011;27407;24.142;-110.310;2023-02-26T06:52:39;6.50;;;1.20;;
41721;SDS011;27407;24.142;-110.310;2023-02-26T06:55:06;13.30;;;1.23;;
41721;SDS011;27407;24.142;-110.310;2023-02-26T06:57:33;16.30;;;2.20;;
41721;SDS011;27407;24.142;-110.310;2023-02-26T07:00:00;12.83;;;1.47;;
41721;SDS011;27407;24.142;-110.310;2023-02-26T07:02:26;10.77;;;1.37;;
41721;SDS011;27407;24.142;-110.310;2023-02-26T07:04:53;12.43;;;1.57;;
41721;SDS011;27407;24.142;-110.310;2023-02-26T07:07:20;12.33;;;1.93;;
41721;SDS011;27407;24.142;-110.310;2023-02-26T07:09:46;8.33;;;1.30;;
41721;SDS011;27407;24.142;-110.310;2023-02-26T07:12:13;17.37;;;1.90;;
41721;SDS011;27407;24.142;-110.310;2023-02-26T07:14:40;14.53;;;1.63;;
41721;SDS011;27407;24.142;-110.310;2023-02-26T07:17:07;23.67;;;1.83;;
41721;SDS011;27407;24.142;-110.310;2023-02-26T07:19:34;10.20;;;2.10;;
41721;SDS011;27407;24.142;-110.310;2023-02-26T07:22:01;28.60;;;2.00;;
41721;SDS011;27407;24.142;-110.310;2023-02-26T07:24:27;11.37;;;1.67;;
41721;SDS011;27407;24.142;-110.310;2023-02-26T07:26:54;5.93;;;1.33;;
41721;SDS011;27407;24.142;-110.310;2023-02-26T07:29:21;14.27;;;1.97;;
41721;SDS011;27407;24.142;-110.310;2023-02-26T07:31:47;9.90;;;1.60;;
41721;SDS011;27407;24.142;-110.310;2023-02-26T07:34:14;6.87;;;1.53;;
41721;SDS011;27407;24.142;-110.310;2023-02-26T07:36:41;9.77;;;1.40;;
41721;SDS011;27407;24.142;-110.310;2023-02-26T07:39:07;10.67;;;1.60;;
41721;SDS011;27407;24.142;-110.310;2023-02-26T07:41:34;18.10;;;1.73;;
41721;SDS011;27407;24.142;-110.310;2023-02-26T07:44:01;11.10;;;2.07;;
41721;SDS011;27407;24.142;-110.310;2023-02-26T07:46:27;11.17;;;1.50;;
41721;SDS011;27407;24.142;-110.310;2023-02-26T07:48:54;11.57;;;2.77;;
41721;SDS011;27407;24.142;-110.310;2023-02-26T07:51:21;12.80;;;2.30;;
41721;SDS011;27407;24.142;-110.310;2023-02-26T07:53:47;17.93;;;1.57;;
41721;SDS011;27407;24.142;-110.310;2023-02-26T07:56:14;11.17;;;1.40;;
41721;SDS011;27407;24.142;-110.310;2023-02-26T07:58:41;10.53;;;1.57;;
41721;SDS011;27407;24.142;-110.310;2023-02-26T08:01:07;9.60;;;1.63;;
41721;SDS011;27407;24.142;-110.310;2023-02-26T08:03:34;14.90;;;1.70;;
41721;SDS011;27407;24.142;-110.310;2023-02-26T08:06:00;9.73;;;1.73;;
41721;SDS011;27407;24.142;-110.310;2023-02-26T08:08:28;12.47;;;1.60;;
41721;SDS011;27407;24.142;-110.310;2023-02-26T08:10:54;11.83;;;1.50;;
41721;SDS011;27407;24.142;-110.310;2023-02-26T08:13:21;3.57;;;0.93;;
41721;SDS011;27407;24.142;-110.310;2023-02-26T08:15:48;6.60;;;1.50;;
41721;SDS011;27407;24.142;-110.310;2023-02-26T08:18:14;18.10;;;1.77;;
41721;SDS011;27407;24.142;-110.310;2023-02-26T08:20:41;8.77;;;1.47;;
41721;SDS011;27407;24.142;-110.310;2023-02-26T08:23:08;14.17;;;1.47;;
41721;SDS011;27407;24.142;-110.310;2023-02-26T08:25:34;12.63;;;1.23;;
41721;SDS011;27407;24.142;-110.310;2023-02-26T08:28:01;7.23;;;1.07;;
41721;SDS011;27407;24.142;-110.310;2023-02-26T08:30:28;13.37;;;1.50;;
41721;SDS011;27407;24.142;-110.310;2023-02-26T08:32:55;6.53;;;1.73;;
41721;SDS011;27407;24.142;-110.310;2023-02-26T08:35:22;11.03;;;1.57;;
41721;SDS011;27407;24.142;-110.310;2023-02-26T08:37:49;9.20;;;1.43;;
41721;SDS011;27407;24.142;-110.310;2023-02-26T08:40:17;11.57;;;1.70;;
41721;SDS011;27407;24.142;-110.310;2023-02-26T08:42:43;8.40;;;1.13;;
41721;SDS011;27407;24.142;-110.310;2023-02-26T08:45:10;5.80;;;1.43;;
41721;SDS011;27407;24.142;-110.310;2023-02-26T08:47:37;8.57;;;1.60;;
41721;SDS011;27407;24.142;-110.310;2023-02-26T08:50:06;8.67;;;1.07;;
41721;SDS011;27407;24.142;-110.310;2023-02-26T08:52:34;8.97;;;1.20;;
41721;SDS011;27407;24.142;-110.310;2023-02-26T08:55:01;6.13;;;1.00;;
41721;SDS011;27407;24.142;-110.310;2023-02-26T08:57:27;10.10;;;1.87;;
41721;SDS011;27407;24.142;-110.310;2023-02-26T08:59:54;7.43;;;1.53;;
41721;SDS011;27407;24.142;-110.310;2023-02-26T09:02:21;9.63;;;1.30;;
41721;SDS011;27407;24.142;-110.310;2023-02-26T09:04:47;13.50;;;1.40;;
41721;SDS011;27407;24.142;-110.310;2023-02-26T09:07:14;19.13;;;1.43;;
41721;SDS011;27407;24.142;-110.310;2023-02-26T09:09:41;9.53;;;1.83;;
41721;SDS011;27407;24.142;-110.310;2023-02-26T09:12:08;13.20;;;1.57;;
41721;SDS011;27407;24.142;-110.310;2023-02-26T09:14:34;4.77;;;1.10;;
41721;SDS011;27407;24.142;-110.310;2023-02-26T09:17:01;20.07;;;2.03;;
41721;SDS011;27407;24.142;-110.310;2023-02-26T09:19:28;6.00;;;1.10;;
41721;SDS011;27407;24.142;-110.310;2023-02-26T09:21:54;6.63;;;1.50;;
41721;SDS011;27407;24.142;-110.310;2023-02-26T09:24:21;14.23;;;1.43;;
41721;SDS011;27407;24.142;-110.310;2023-02-26T09:26:48;14.77;;;1.30;;
41721;SDS011;27407;24.142;-110.310;2023-02-26T09:29:14;13.23;;;1.70;;
41721;SDS011;27407;24.142;-110.310;2023-02-26T09:31:41;11.67;;;1.20;;
41721;SDS011;27407;24.142;-110.310;2023-02-26T09:34:08;8.63;;;1.70;;
41721;SDS011;27407;24.142;-110.310;2023-02-26T09:36:34;8.63;;;1.40;;
41721;SDS011;27407;24.142;-110.310;2023-02-26T09:39:02;6.20;;;1.33;;
41721;SDS011;27407;24.142;-110.310;2023-02-26T09:41:30;7.60;;;1.40;;
41721;SDS011;27407;24.142;-110.310;2023-02-26T09:44:04;14.53;;;1.80;;
41721;SDS011;27407;24.142;-110.310;2023-02-26T09:52:10;11.60;;;1.50;;
41721;SDS011;27407;24.142;-110.310;2023-02-26T09:54:52;7.40;;;1.37;;
41721;SDS011;27407;24.142;-110.310;2023-02-26T09:57:32;7.27;;;1.17;;
41721;SDS011;27407;24.142;-110.310;2023-02-26T10:00:03;10.97;;;1.13;;
41721;SDS011;27407;24.142;-110.310;2023-02-26T10:08:50;6.87;;;1.77;;
41721;SDS011;27407;24.142;-110.310;2023-02-26T10:11:45;5.33;;;0.93;;
41721;SDS011;27407;24.142;-110.310;2023-02-26T10:14:22;8.20;;;1.43;;
41721;SDS011;27407;24.142;-110.310;2023-02-26T10:17:22;8.30;;;1.10;;
41721;SDS011;27407;24.142;-110.310;2023-02-26T10:20:05;3.90;;;0.93;;
41721;SDS011;27407;24.142;-110.310;2023-02-26T10:31:37;3.80;;;0.90;;
41721;SDS011;27407;24.142;-110.310;2023-02-26T10:34:18;8.07;;;1.03;;
41721;SDS011;27407;24.142;-110.310;2023-02-26T10:40:43;2.00;;;0.50;;
41721;SDS011;27407;24.142;-110.310;2023-02-26T10:51:17;5.30;;;1.03;;
41721;SDS011;27407;24.142;-110.310;2023-02-26T10:53:51;4.40;;;0.70;;
41721;SDS011;27407;24.142;-110.310;2023-02-26T10:56:25;7.50;;;1.23;;
41721;SDS011;27407;24.142;-110.310;2023-02-26T10:58:55;10.07;;;1.00;;
41721;SDS011;27407;24.142;-110.310;2023-02-26T11:01:23;9.07;;;1.17;;
41721;SDS011;27407;24.142;-110.310;2023-02-26T11:06:33;3.47;;;1.00;;
41721;SDS011;27407;24.142;-110.310;2023-02-26T11:09:18;2.90;;;0.73;;
41721;SDS011;27407;24.142;-110.310;2023-02-26T11:14:37;23.67;;;1.60;;
41721;SDS011;27407;24.142;-110.310;2023-02-26T11:17:15;14.57;;;1.47;;
41721;SDS011;27407;24.142;-110.310;2023-02-26T11:19:55;5.23;;;1.33;;
41721;SDS011;27407;24.142;-110.310;2023-02-26T11:22:32;3.77;;;0.90;;
41721;SDS011;27407;24.142;-110.310;2023-02-26T11:25:02;12.03;;;1.53;;
41721;SDS011;27407;24.142;-110.310;2023-02-26T11:27:31;7.27;;;1.03;;
41721;SDS011;27407;24.142;-110.310;2023-02-26T11:30:05;8.20;;;1.03;;
41721;SDS011;27407;24.142;-110.310;2023-02-26T11:32:44;2.50;;;0.90;;
41721;SDS011;27407;24.142;-110.310;2023-02-26T11:35:14;9.40;;;1.07;;
41721;SDS011;27407;24.142;-110.310;2023-02-26T11:37:47;2.03;;;0.60;;
41721;SDS011;27407;24.142;-110.310;2023-02-26T11:43:05;2.83;;;0.80;;
41721;SDS011;27407;24.142;-110.310;2023-02-26T11:45:38;5.73;;;0.80;;
41721;SDS011;27407;24.142;-110.310;2023-02-26T11:48:13;6.77;;;0.83;;
41721;SDS011;27407;24.142;-110.310;2023-02-26T11:50:50;2.50;;;0.53;;
41721;SDS011;27407;24.142;-110.310;2023-02-26T11:53:24;4.63;;;1.10;;
41721;SDS011;27407;24.142;-110.310;2023-02-26T11:56:01;4.40;;;1.20;;
41721;SDS011;27407;24.142;-110.310;2023-02-26T11:58:40;11.40;;;1.13;;
41721;SDS011;27407;24.142;-110.310;2023-02-26T12:01:11;4.03;;;1.03;;
41721;SDS011;27407;24.142;-110.310;2023-02-26T12:03:43;4.80;;;1.20;;
41721;SDS011;27407;24.142;-110.310;2023-02-26T12:06:22;4.93;;;1.10;;
41721;SDS011;27407;24.142;-110.310;2023-02-26T12:08:49;8.87;;;0.73;;
41721;SDS011;27407;24.142;-110.310;2023-02-26T12:17:00;7.40;;;1.00;;
41721;SDS011;27407;24.142;-110.310;2023-02-26T12:33:54;5.90;;;0.70;;
41721;SDS011;27407;24.142;-110.310;2023-02-26T12:40:10;6.93;;;1.17;;
41721;SDS011;27407;24.142;-110.310;2023-02-26T12:42:42;4.87;;;0.93;;
41721;SDS011;27407;24.142;-110.310;2023-02-26T12:56:27;4.27;;;0.83;;
41721;SDS011;27407;24.142;-110.310;2023-02-26T13:07:43;2.23;;;0.80;;
41721;SDS011;27407;24.142;-110.310;2023-02-26T13:13:14;20.20;;;1.40;;
41721;SDS011;27407;24.142;-110.310;2023-02-26T13:16:10;4.20;;;0.70;;
41721;SDS011;27407;24.142;-110.310;2023-02-26T13:18:59;13.63;;;1.00;;
41721;SDS011;27407;24.142;-110.310;2023-02-26T13:21:50;2.37;;;0.70;;
41721;SDS011;27407;24.142;-110.310;2023-02-26T13:24:27;1.53;;;0.80;;
41721;SDS011;27407;24.142;-110.310;2023-02-26T13:27:05;6.20;;;0.70;;
41721;SDS011;27407;24.142;-110.310;2023-02-26T13:29:36;16.37;;;1.40;;
41721;SDS011;27407;24.142;-110.310;2023-02-26T13:32:21;4.87;;;1.00;;
41721;SDS011;27407;24.142;-110.310;2023-02-26T13:35:03;17.17;;;1.43;;
41721;SDS011;27407;24.142;-110.310;2023-02-26T13:37:50;8.73;;;0.80;;
41721;SDS011;27407;24.142;-110.310;2023-02-26T13:40:34;7.43;;;1.07;;
41721;SDS011;27407;24.142;-110.310;2023-02-26T13:46:08;5.17;;;1.30;;
41721;SDS011;27407;24.142;-110.310;2023-02-26T13:48:39;11.00;;;0.77;;
41721;SDS011;27407;24.142;-110.310;2023-02-26T13:51:38;5.67;;;1.00;;
41721;SDS011;27407;24.142;-110.310;2023-02-26T13:56:41;5.93;;;1.43;;
41721;SDS011;27407;24.142;-110.310;2023-02-26T14:02:00;10.67;;;1.07;;
41721;SDS011;27407;24.142;-110.310;2023-02-26T14:04:54;6.13;;;0.73;;
41721;SDS011;27407;24.142;-110.310;2023-02-26T14:10:42;11.40;;;1.73;;
41721;SDS011;27407;24.142;-110.310;2023-02-26T14:13:22;7.00;;;1.20;;
41721;SDS011;27407;24.142;-110.310;2023-02-26T14:18:52;15.93;;;1.43;;
41721;SDS011;27407;24.142;-110.310;2023-02-26T14:23:56;9.27;;;1.10;;
41721;SDS011;27407;24.142;-110.310;2023-02-26T14:26:31;3.87;;;1.00;;
41721;SDS011;27407;24.142;-110.310;2023-02-26T14:31:49;14.17;;;1.43;;
41721;SDS011;27407;24.142;-110.310;2023-02-26T14:34:23;1.60;;;0.70;;
41721;SDS011;27407;24.142;-110.310;2023-02-26T14:37:02;7.37;;;0.87;;
41721;SDS011;27407;24.142;-110.310;2023-02-26T14:39:35;5.20;;;1.13;;
41721;SDS011;27407;24.142;-110.310;2023-02-26T14:42:18;7.67;;;1.20;;
41721;SDS011;27407;24.142;-110.310;2023-02-26T14:44:55;10.67;;;1.40;;
41721;SDS011;27407;24.142;-110.310;2023-02-26T14:47:55;21.67;;;3.33;;
41721;SDS011;27407;24.142;-110.310;2023-02-26T14:50:24;12.20;;;1.27;;
41721;SDS011;27407;24.142;-110.310;2023-02-26T14:59:10;20.47;;;1.73;;
41721;SDS011;27407;24.142;-110.310;2023-02-26T15:02:08;4.30;;;0.87;;
41721;SDS011;27407;24.142;-110.310;2023-02-26T15:05:10;12.33;;;1.30;;
41721;SDS011;27407;24.142;-110.310;2023-02-26T15:08:02;50.40;;;4.10;;
41721;SDS011;27407;24.142;-110.310;2023-02-26T15:28:12;10.60;;;0.80;;
41721;SDS011;27407;24.142;-110.310;2023-02-26T15:30:46;7.67;;;1.00;;
41721;SDS011;27407;24.142;-110.310;2023-02-26T15:35:48;16.67;;;1.67;;
41721;SDS011;27407;24.142;-110.310;2023-02-26T15:38:16;9.43;;;1.70;;
41721;SDS011;27407;24.142;-110.310;2023-02-26T15:40:43;14.07;;;1.00;;
41721;SDS011;27407;24.142;-110.310;2023-02-26T15:43:13;15.80;;;1.10;;
41721;SDS011;27407;24.142;-110.310;2023-02-26T15:45:44;14.97;;;2.10;;
41721;SDS011;27407;24.142;-110.310;2023-02-26T15:50:47;24.10;;;1.90;;
41721;SDS011;27407;24.142;-110.310;2023-02-26T15:53:25;13.40;;;1.33;;
41721;SDS011;27407;24.142;-110.310;2023-02-26T15:55:56;8.70;;;1.73;;
41721;SDS011;27407;24.142;-110.310;2023-02-26T15:58:44;11.53;;;1.03;;
41721;SDS011;27407;24.142;-110.310;2023-02-26T16:01:16;6.77;;;1.50;;
41721;SDS011;27407;24.142;-110.310;2023-02-26T16:03:48;10.67;;;1.73;;
41721;SDS011;27407;24.142;-110.310;2023-02-26T16:06:21;68.20;;;5.00;;
41721;SDS011;27407;24.142;-110.310;2023-02-26T16:08:53;9.70;;;1.73;;
41721;SDS011;27407;24.142;-110.310;2023-02-26T16:11:20;12.10;;;2.37;;
41721;SDS011;27407;24.142;-110.310;2023-02-26T16:13:49;17.53;;;1.57;;
41721;SDS011;27407;24.142;-110.310;2023-02-26T16:16:20;10.97;;;1.53;;
41721;SDS011;27407;24.142;-110.310;2023-02-26T16:18:52;25.47;;;3.10;;
41721;SDS011;27407;24.142;-110.310;2023-02-26T16:21:29;55.40;;;3.37;;
41721;SDS011;27407;24.142;-110.310;2023-02-26T16:23:59;52.30;;;4.20;;
41721;SDS011;27407;24.142;-110.310;2023-02-26T16:26:30;11.60;;;1.23;;
41721;SDS011;27407;24.142;-110.310;2023-02-26T16:29:06;12.00;;;1.83;;
41721;SDS011;27407;24.142;-110.310;2023-02-26T16:31:41;15.10;;;1.70;;
41721;SDS011;27407;24.142;-110.310;2023-02-26T16:37:25;21.67;;;1.87;;
41721;SDS011;27407;24.142;-110.310;2023-02-26T16:40:18;18.30;;;1.77;;
41721;SDS011;27407;24.142;-110.310;2023-02-26T16:48:08;80.93;;;5.30;;
41721;SDS011;27407;24.142;-110.310;2023-02-26T16:50:40;10.93;;;1.20;;
41721;SDS011;27407;24.142;-110.310;2023-02-26T16:53:17;8.43;;;1.17;;
41721;SDS011;27407;24.142;-110.310;2023-02-26T16:55:51;13.27;;;1.23;;
41721;SDS011;27407;24.142;-110.310;2023-02-26T16:58:20;9.70;;;1.47;;
41721;SDS011;27407;24.142;-110.310;2023-02-26T17:00:49;6.70;;;1.47;;
41721;SDS011;27407;24.142;-110.310;2023-02-26T17:03:24;10.47;;;1.30;;
41721;SDS011;27407;24.142;-110.310;2023-02-26T17:06:01;318.30;;;20.37;;
41721;SDS011;27407;24.142;-110.310;2023-02-26T17:08:41;49.30;;;3.53;;
41721;SDS011;27407;24.142;-110.310;2023-02-26T17:11:37;55.47;;;3.53;;
41721;SDS011;27407;24.142;-110.310;2023-02-26T17:14:19;31.20;;;1.90;;
41721;SDS011;27407;24.142;-110.310;2023-02-26T17:16:50;4.30;;;0.93;;
41721;SDS011;27407;24.142;-110.310;2023-02-26T17:19:17;14.27;;;1.63;;
41721;SDS011;27407;24.142;-110.310;2023-02-26T17:21:46;4.27;;;1.00;;
41721;SDS011;27407;24.142;-110.310;2023-02-26T17:27:07;5.17;;;0.80;;
41721;SDS011;27407;24.142;-110.310;2023-02-26T17:29:39;10.40;;;0.80;;
41721;SDS011;27407;24.142;-110.310;2023-02-26T17:32:12;5.07;;;0.93;;
41721;SDS011;27407;24.142;-110.310;2023-02-26T17:34:47;12.33;;;1.10;;
41721;SDS011;27407;24.142;-110.310;2023-02-26T17:37:15;9.83;;;0.97;;
41721;SDS011;27407;24.142;-110.310;2023-02-26T17:39:42;5.07;;;1.33;;
41721;SDS011;27407;24.142;-110.310;2023-02-26T17:42:10;6.93;;;0.63;;
41721;SDS011;27407;24.142;-110.310;2023-02-26T17:44:43;18.63;;;2.40;;
41721;SDS011;27407;24.142;-110.310;2023-02-26T17:47:20;4.00;;;0.50;;
41721;SDS011;27407;24.142;-110.310;2023-02-26T17:49:48;5.20;;;0.80;;
41721;SDS011;27407;24.142;-110.310;2023-02-26T17:52:15;2.27;;;0.50;;